Ortigueira, Brazil
Current Conditions -  °F | °C
As of 3:00 PM on Sunday 23 Nov 2014 (Local Time) from SBLO Reporting Station
Broken Clouds Broken Clouds  
Wind Chill: 84°   Ceiling: 3000
Heat Index: 86°   Visibility: 6mi
Dew Point: 64°   Wind: 8mph
Humidity: 51%   Direction: 50°NE
Pressure: 29.94"   Gusts: NA
Location:  24.21°S, 50.95°W
Report Text: SBLO 231700Z 05007KT 9999 BKN030 29/18 Q1014
Loading
Personal Weather Stations






























Interactive Weather Map New forecast layout! Learn more

10-Day Weather Forecast

Advertisements
Track Severe Weather on mobile